sensor_id;sensor_type;location;lat;lon;timestamp;pressure;altitude;pressure_sealevel;temperature;humidity
60417;BME280;46263;44.726;10.396;2023-05-08T00:00:12;100578.75;;;22.90;59.86
60417;BME280;46263;44.726;10.396;2023-05-08T00:02:39;100577.72;;;22.85;60.10
60417;BME280;46263;44.726;10.396;2023-05-08T00:05:05;100577.88;;;22.87;59.56
60417;BME280;46263;44.726;10.396;2023-05-08T00:07:31;100579.84;;;22.85;59.25
60417;BME280;46263;44.726;10.396;2023-05-08T00:09:56;100579.53;;;22.81;59.49
60417;BME280;46263;44.726;10.396;2023-05-08T00:12:22;100581.03;;;22.82;59.99
60417;BME280;46263;44.726;10.396;2023-05-08T00:15:06;100592.91;;;22.78;59.71
60417;BME280;46263;44.726;10.396;2023-05-08T00:17:32;100586.44;;;22.78;59.27
60417;BME280;46263;44.726;10.396;2023-05-08T00:19:58;100577.75;;;22.76;59.22
60417;BME280;46263;44.726;10.396;2023-05-08T00:22:23;100580.13;;;22.70;59.27
60417;BME280;46263;44.726;10.396;2023-05-08T00:24:49;100589.16;;;22.66;59.08
60417;BME280;46263;44.726;10.396;2023-05-08T00:27:14;100597.41;;;22.62;59.06
60417;BME280;46263;44.726;10.396;2023-05-08T00:29:40;100593.22;;;22.63;59.28
60417;BME280;46263;44.726;10.396;2023-05-08T00:32:06;100591.09;;;22.64;58.90
60417;BME280;46263;44.726;10.396;2023-05-08T00:34:32;100587.97;;;22.60;59.36
60417;BME280;46263;44.726;10.396;2023-05-08T00:36:57;100587.97;;;22.60;59.12
60417;BME280;46263;44.726;10.396;2023-05-08T00:39:23;100597.28;;;22.51;59.30
60417;BME280;46263;44.726;10.396;2023-05-08T00:44:32;100586.78;;;22.44;59.68
60417;BME280;46263;44.726;10.396;2023-05-08T00:46:58;100589.16;;;22.38;59.79
60417;BME280;46263;44.726;10.396;2023-05-08T00:49:24;100586.31;;;22.29;59.76
60417;BME280;46263;44.726;10.396;2023-05-08T00:51:53;100592.59;;;22.27;60.04
60417;BME280;46263;44.726;10.396;2023-05-08T00:54:20;100591.25;;;22.28;60.01
60417;BME280;46263;44.726;10.396;2023-05-08T00:56:46;100588.56;;;22.21;60.42
60417;BME280;46263;44.726;10.396;2023-05-08T00:59:14;100592.59;;;22.18;60.47
60417;BME280;46263;44.726;10.396;2023-05-08T01:01:42;100582.25;;;22.22;59.70
60417;BME280;46263;44.726;10.396;2023-05-08T01:04:08;100589.59;;;22.25;60.35
60417;BME280;46263;44.726;10.396;2023-05-08T01:06:34;100589.00;;;22.17;60.18
60417;BME280;46263;44.726;10.396;2023-05-08T01:09:02;100577.59;;;22.17;60.17
60417;BME280;46263;44.726;10.396;2023-05-08T01:11:33;100586.00;;;22.15;60.25
60417;BME280;46263;44.726;10.396;2023-05-08T01:33:48;100595.09;;;21.85;61.25
60417;BME280;46263;44.726;10.396;2023-05-08T01:36:33;100597.19;;;21.85;61.29
60417;BME280;46263;44.726;10.396;2023-05-08T01:41:55;100598.69;;;21.76;61.43
60417;BME280;46263;44.726;10.396;2023-05-08T01:44:28;100594.16;;;21.73;61.27
60417;BME280;46263;44.726;10.396;2023-05-08T01:46:56;100595.53;;;21.72;61.08
60417;BME280;46263;44.726;10.396;2023-05-08T01:49:29;100593.88;;;21.69;61.38
60417;BME280;46263;44.726;10.396;2023-05-08T01:52:03;100595.38;;;21.70;61.64
60417;BME280;46263;44.726;10.396;2023-05-08T01:54:38;100604.94;;;21.66;61.71
60417;BME280;46263;44.726;10.396;2023-05-08T01:57:06;100601.63;;;21.69;61.50
60417;BME280;46263;44.726;10.396;2023-05-08T01:59:35;100601.50;;;21.67;61.84
60417;BME280;46263;44.726;10.396;2023-05-08T02:02:01;100597.91;;;21.67;61.61
60417;BME280;46263;44.726;10.396;2023-05-08T02:04:28;100602.84;;;21.66;61.25
60417;BME280;46263;44.726;10.396;2023-05-08T02:06:56;100598.63;;;21.58;61.87
60417;BME280;46263;44.726;10.396;2023-05-08T02:09:23;100603.97;;;21.54;61.41
60417;BME280;46263;44.726;10.396;2023-05-08T02:11:51;100592.13;;;21.48;61.74
60417;BME280;46263;44.726;10.396;2023-05-08T02:14:19;100601.84;;;21.45;60.83
60417;BME280;46263;44.726;10.396;2023-05-08T02:16:47;100600.03;;;21.40;61.57
60417;BME280;46263;44.726;10.396;2023-05-08T02:19:15;100605.72;;;21.40;61.65
60417;BME280;46263;44.726;10.396;2023-05-08T02:21:43;100611.84;;;21.36;61.75
60417;BME280;46263;44.726;10.396;2023-05-08T02:24:09;100603.91;;;21.35;61.43
60417;BME280;46263;44.726;10.396;2023-05-08T02:26:36;100606.56;;;21.33;61.43
60417;BME280;46263;44.726;10.396;2023-05-08T02:31:28;100601.75;;;21.26;61.92
60417;BME280;46263;44.726;10.396;2023-05-08T02:33:56;100595.44;;;21.18;61.64
60417;BME280;46263;44.726;10.396;2023-05-08T02:36:24;100601.72;;;21.16;61.52
60417;BME280;46263;44.726;10.396;2023-05-08T02:38:51;100608.53;;;21.04;61.80
60417;BME280;46263;44.726;10.396;2023-05-08T02:41:19;100614.22;;;21.04;62.10
60417;BME280;46263;44.726;10.396;2023-05-08T02:43:47;100612.28;;;21.06;62.25
60417;BME280;46263;44.726;10.396;2023-05-08T02:46:26;100602.81;;;20.94;62.47
60417;BME280;46263;44.726;10.396;2023-05-08T02:49:00;100607.72;;;20.94;62.26
60417;BME280;46263;44.726;10.396;2023-05-08T02:51:38;100602.91;;;20.87;62.01
60417;BME280;46263;44.726;10.396;2023-05-08T02:54:20;100609.91;;;20.86;62.27
60417;BME280;46263;44.726;10.396;2023-05-08T02:57:00;100603.94;;;20.82;62.22
60417;BME280;46263;44.726;10.396;2023-05-08T02:59:33;100603.94;;;20.82;62.12
60417;BME280;46263;44.726;10.396;2023-05-08T03:04:40;100600.19;;;20.80;61.97
60417;BME280;46263;44.726;10.396;2023-05-08T03:07:07;100596.97;;;20.76;61.85
60417;BME280;46263;44.726;10.396;2023-05-08T03:09:43;100589.91;;;20.50;62.09
60417;BME280;46263;44.726;10.396;2023-05-08T03:12:13;100603.09;;;20.55;62.35
60417;BME280;46263;44.726;10.396;2023-05-08T03:14:44;100605.34;;;20.57;62.60
60417;BME280;46263;44.726;10.396;2023-05-08T03:17:14;100606.28;;;20.59;62.37
60417;BME280;46263;44.726;10.396;2023-05-08T03:19:41;100607.03;;;20.60;61.96
60417;BME280;46263;44.726;10.396;2023-05-08T03:22:11;100601.84;;;20.49;62.08
60417;BME280;46263;44.726;10.396;2023-05-08T03:24:38;100619.66;;;20.49;61.83
60417;BME280;46263;44.726;10.396;2023-05-08T03:27:07;100613.81;;;20.47;62.15
60417;BME280;46263;44.726;10.396;2023-05-08T03:29:35;100619.91;;;20.44;62.27
60417;BME280;46263;44.726;10.396;2023-05-08T03:32:02;100623.75;;;20.39;62.51
60417;BME280;46263;44.726;10.396;2023-05-08T03:34:29;100613.88;;;20.40;62.48
60417;BME280;46263;44.726;10.396;2023-05-08T03:36:55;100613.88;;;20.40;62.36
60417;BME280;46263;44.726;10.396;2023-05-08T03:39:21;100623.66;;;20.29;62.49
60417;BME280;46263;44.726;10.396;2023-05-08T03:41:48;100626.09;;;20.33;61.87
60417;BME280;46263;44.726;10.396;2023-05-08T03:44:15;100617.75;;;20.35;62.10
60417;BME280;46263;44.726;10.396;2023-05-08T03:46:43;100615.66;;;20.35;62.04
60417;BME280;46263;44.726;10.396;2023-05-08T03:49:09;100623.41;;;20.35;61.83
60417;BME280;46263;44.726;10.396;2023-05-08T03:51:40;100619.97;;;20.36;61.72
60417;BME280;46263;44.726;10.396;2023-05-08T03:54:06;100624.31;;;20.20;61.89
60417;BME280;46263;44.726;10.396;2023-05-08T03:56:32;100624.50;;;20.22;62.20
60417;BME280;46263;44.726;10.396;2023-05-08T04:01:39;100635.84;;;20.05;61.97
60417;BME280;46263;44.726;10.396;2023-05-08T04:09:38;100640.66;;;19.96;62.10
60417;BME280;46263;44.726;10.396;2023-05-08T04:12:21;100650.69;;;19.97;62.12
60417;BME280;46263;44.726;10.396;2023-05-08T04:14:55;100657.91;;;19.90;62.63
60417;BME280;46263;44.726;10.396;2023-05-08T04:17:48;100660.63;;;19.81;63.29
60417;BME280;46263;44.726;10.396;2023-05-08T04:20:19;100658.38;;;19.79;62.77
60417;BME280;46263;44.726;10.396;2023-05-08T04:22:46;100662.38;;;19.76;63.19
60417;BME280;46263;44.726;10.396;2023-05-08T04:25:15;100673.94;;;19.71;63.37
60417;BME280;46263;44.726;10.396;2023-05-08T04:27:42;100675.44;;;19.72;62.30
60417;BME280;46263;44.726;10.396;2023-05-08T04:30:09;100679.97;;;19.75;62.56
60417;BME280;46263;44.726;10.396;2023-05-08T04:32:36;100688.44;;;19.82;62.67
60417;BME280;46263;44.726;10.396;2023-05-08T04:35:03;100679.97;;;19.75;63.16
60417;BME280;46263;44.726;10.396;2023-05-08T04:37:29;100688.25;;;19.80;62.22
60417;BME280;46263;44.726;10.396;2023-05-08T04:39:59;100686.75;;;19.79;62.33
60417;BME280;46263;44.726;10.396;2023-05-08T04:42:26;100685.41;;;19.80;62.66
60417;BME280;46263;44.726;10.396;2023-05-08T04:44:52;100689.00;;;19.81;62.37
60417;BME280;46263;44.726;10.396;2023-05-08T04:47:18;100691.78;;;19.64;62.82
60417;BME280;46263;44.726;10.396;2023-05-08T04:49:44;100686.78;;;19.72;62.95
60417;BME280;46263;44.726;10.396;2023-05-08T04:52:10;100692.13;;;19.68;63.44
60417;BME280;46263;44.726;10.396;2023-05-08T04:54:35;100693.25;;;19.72;62.84
60417;BME280;46263;44.726;10.396;2023-05-08T04:57:01;100698.50;;;19.76;63.17
60417;BME280;46263;44.726;10.396;2023-05-08T04:59:26;100694.84;;;19.83;62.25
60417;BME280;46263;44.726;10.396;2023-05-08T05:01:54;100696.38;;;19.84;62.64
60417;BME280;46263;44.726;10.396;2023-05-08T05:04:20;100701.94;;;19.74;62.26
60417;BME280;46263;44.726;10.396;2023-05-08T05:06:46;100708.47;;;19.60;63.08
60417;BME280;46263;44.726;10.396;2023-05-08T05:09:11;100705.63;;;19.60;62.69
60417;BME280;46263;44.726;10.396;2023-05-08T05:11:37;100711.41;;;19.69;63.14
60417;BME280;46263;44.726;10.396;2023-05-08T05:14:02;100707.94;;;19.78;62.70
60417;BME280;46263;44.726;10.396;2023-05-08T05:16:28;100711.22;;;19.67;63.16
60417;BME280;46263;44.726;10.396;2023-05-08T05:18:53;100712.81;;;19.61;62.98
60417;BME280;46263;44.726;10.396;2023-05-08T05:21:19;100709.97;;;19.61;63.10
60417;BME280;46263;44.726;10.396;2023-05-08T05:23:44;100716.78;;;19.58;63.59
60417;BME280;46263;44.726;10.396;2023-05-08T05:26:10;100718.50;;;19.53;63.71
60417;BME280;46263;44.726;10.396;2023-05-08T05:28:36;100722.47;;;19.58;63.39
60417;BME280;46263;44.726;10.396;2023-05-08T05:31:02;100717.78;;;19.53;63.62
60417;BME280;46263;44.726;10.396;2023-05-08T05:33:27;100717.59;;;19.51;63.71
60417;BME280;46263;44.726;10.396;2023-05-08T05:35:53;100723.56;;;19.62;63.89
60417;BME280;46263;44.726;10.396;2023-05-08T05:38:18;100713.94;;;19.58;64.32
60417;BME280;46263;44.726;10.396;2023-05-08T05:40:44;100713.28;;;19.74;63.73
60417;BME280;46263;44.726;10.396;2023-05-08T05:43:10;100714.72;;;19.83;64.34
60417;BME280;46263;44.726;10.396;2023-05-08T05:45:35;100725.06;;;19.88;63.63
60417;BME280;46263;44.726;10.396;2023-05-08T05:48:01;100710.13;;;19.95;63.95
60417;BME280;46263;44.726;10.396;2023-05-08T05:50:27;100712.28;;;20.03;64.32
60417;BME280;46263;44.726;10.396;2023-05-08T05:52:53;100721.34;;;20.09;63.94
60417;BME280;46263;44.726;10.396;2023-05-08T05:55:19;100714.34;;;20.10;63.64
60417;BME280;46263;44.726;10.396;2023-05-08T05:57:45;100718.09;;;20.13;63.67
60417;BME280;46263;44.726;10.396;2023-05-08T06:00:10;100723.19;;;20.14;64.32
60417;BME280;46263;44.726;10.396;2023-05-08T06:02:36;100723.19;;;20.14;64.33
60417;BME280;46263;44.726;10.396;2023-05-08T06:05:02;100729.22;;;20.18;63.84
60417;BME280;46263;44.726;10.396;2023-05-08T06:07:28;100726.88;;;20.24;63.12
60417;BME280;46263;44.726;10.396;2023-05-08T06:09:54;100722.53;;;20.23;63.62
60417;BME280;46263;44.726;10.396;2023-05-08T06:12:22;100725.47;;;20.33;62.92
60417;BME280;46263;44.726;10.396;2023-05-08T06:14:48;100731.91;;;20.33;62.99
60417;BME280;46263;44.726;10.396;2023-05-08T06:17:15;100733.56;;;20.36;63.15
60417;BME280;46263;44.726;10.396;2023-05-08T06:19:41;100731.25;;;20.42;62.97
60417;BME280;46263;44.726;10.396;2023-05-08T06:22:07;100727.91;;;20.53;63.14
60417;BME280;46263;44.726;10.396;2023-05-08T06:24:32;100724.22;;;20.60;62.77
60417;BME280;46263;44.726;10.396;2023-05-08T06:26:59;100733.09;;;20.64;62.75
60417;BME280;46263;44.726;10.396;2023-05-08T06:29:25;100728.75;;;20.63;63.38
60417;BME280;46263;44.726;10.396;2023-05-08T06:31:50;100735.09;;;20.71;63.43
60417;BME280;46263;44.726;10.396;2023-05-08T06:34:15;100727.50;;;20.74;63.56
60417;BME280;46263;44.726;10.396;2023-05-08T06:36:41;100732.63;;;20.75;63.48
60417;BME280;46263;44.726;10.396;2023-05-08T06:39:06;100730.13;;;20.79;63.81
60417;BME280;46263;44.726;10.396;2023-05-08T06:41:32;100726.00;;;20.73;63.89
60417;BME280;46263;44.726;10.396;2023-05-08T06:43:57;100730.13;;;20.79;63.76
60417;BME280;46263;44.726;10.396;2023-05-08T06:46:23;100721.34;;;20.85;64.00
60417;BME280;46263;44.726;10.396;2023-05-08T06:48:48;100728.88;;;20.89;63.63
60417;BME280;46263;44.726;10.396;2023-05-08T06:51:14;100724.25;;;20.94;63.69
60417;BME280;46263;44.726;10.396;2023-05-08T06:53:39;100727.44;;;20.98;63.90
60417;BME280;46263;44.726;10.396;2023-05-08T06:56:05;100723.16;;;21.06;63.61
60417;BME280;46263;44.726;10.396;2023-05-08T06:58:31;100724.84;;;21.09;63.92
60417;BME280;46263;44.726;10.396;2023-05-08T07:00:59;100719.75;;;21.08;63.25
60417;BME280;46263;44.726;10.396;2023-05-08T07:03:27;100723.66;;;21.12;63.36
60417;BME280;46263;44.726;10.396;2023-05-08T07:05:54;100730.59;;;21.19;63.31
60417;BME280;46263;44.726;10.396;2023-05-08T07:08:20;100729.59;;;21.24;63.62
60417;BME280;46263;44.726;10.396;2023-05-08T07:10:45;100735.16;;;21.31;63.14
60417;BME280;46263;44.726;10.396;2023-05-08T07:13:11;100727.88;;;21.38;63.28
60417;BME280;46263;44.726;10.396;2023-05-08T07:15:36;100725.50;;;21.44;62.95
60417;BME280;46263;44.726;10.396;2023-05-08T07:18:03;100731.66;;;21.50;62.88
60417;BME280;46263;44.726;10.396;2023-05-08T07:20:29;100737.91;;;21.56;62.58
60417;BME280;46263;44.726;10.396;2023-05-08T07:22:54;100733.09;;;21.58;62.49
60417;BME280;46263;44.726;10.396;2023-05-08T07:25:20;100733.75;;;21.66;62.08
60417;BME280;46263;44.726;10.396;2023-05-08T07:27:45;100735.72;;;21.73;61.68
60417;BME280;46263;44.726;10.396;2023-05-08T07:30:11;100738.47;;;21.80;61.00
60417;BME280;46263;44.726;10.396;2023-05-08T07:32:36;100739.09;;;21.88;61.37
60417;BME280;46263;44.726;10.396;2023-05-08T07:35:04;100749.75;;;21.97;61.28
60417;BME280;46263;44.726;10.396;2023-05-08T07:37:30;100754.59;;;22.04;60.92
60417;BME280;46263;44.726;10.396;2023-05-08T07:39:57;100750.88;;;22.11;60.07
60417;BME280;46263;44.726;10.396;2023-05-08T07:42:22;100755.53;;;22.16;59.86
60417;BME280;46263;44.726;10.396;2023-05-08T07:44:48;100758.53;;;22.18;58.92
60417;BME280;46263;44.726;10.396;2023-05-08T07:47:13;100762.28;;;22.21;59.33
60417;BME280;46263;44.726;10.396;2023-05-08T07:49:40;100765.59;;;22.27;59.10
60417;BME280;46263;44.726;10.396;2023-05-08T07:52:06;100757.97;;;22.29;59.58
60417;BME280;46263;44.726;10.396;2023-05-08T07:54:32;100761.91;;;22.34;59.33
60417;BME280;46263;44.726;10.396;2023-05-08T07:56:57;100754.28;;;22.36;59.51
60417;BME280;46263;44.726;10.396;2023-05-08T07:59:23;100749.94;;;22.35;59.41
60417;BME280;46263;44.726;10.396;2023-05-08T08:01:48;100753.06;;;22.39;59.76
60417;BME280;46263;44.726;10.396;2023-05-08T08:04:14;100749.19;;;22.44;60.09
60417;BME280;46263;44.726;10.396;2023-05-08T08:06:39;100746.66;;;22.48;59.46
60417;BME280;46263;44.726;10.396;2023-05-08T08:09:05;100752.97;;;22.56;60.04
60417;BME280;46263;44.726;10.396;2023-05-08T08:11:30;100750.56;;;22.52;60.52
60417;BME280;46263;44.726;10.396;2023-05-08T08:13:56;100751.16;;;22.60;60.32
60417;BME280;46263;44.726;10.396;2023-05-08T08:16:21;100754.78;;;22.61;59.76
60417;BME280;46263;44.726;10.396;2023-05-08T08:18:47;100766.47;;;22.65;59.29
60417;BME280;46263;44.726;10.396;2023-05-08T08:21:12;100758.25;;;22.69;58.67
60417;BME280;46263;44.726;10.396;2023-05-08T08:23:38;100757.63;;;22.70;59.20
60417;BME280;46263;44.726;10.396;2023-05-08T08:26:03;100763.50;;;22.72;59.18
60417;BME280;46263;44.726;10.396;2023-05-08T08:28:29;100759.72;;;22.70;59.67
60417;BME280;46263;44.726;10.396;2023-05-08T08:30:54;100759.88;;;22.72;59.53
60417;BME280;46263;44.726;10.396;2023-05-08T08:33:20;100760.03;;;22.74;59.23
60417;BME280;46263;44.726;10.396;2023-05-08T08:35:45;100768.88;;;22.78;58.95
60417;BME280;46263;44.726;10.396;2023-05-08T08:38:11;100761.69;;;22.77;59.88
60417;BME280;46263;44.726;10.396;2023-05-08T08:40:41;100763.19;;;22.78;59.62
60417;BME280;46263;44.726;10.396;2023-05-08T08:43:06;100764.69;;;22.79;58.14
60417;BME280;46263;44.726;10.396;2023-05-08T08:45:32;100760.19;;;22.85;58.19
60417;BME280;46263;44.726;10.396;2023-05-08T08:48:01;100765.59;;;22.91;59.32
60417;BME280;46263;44.726;10.396;2023-05-08T08:50:31;100753.28;;;22.98;59.46
60417;BME280;46263;44.726;10.396;2023-05-08T08:53:10;100751.81;;;23.06;59.29
60417;BME280;46263;44.726;10.396;2023-05-08T08:55:39;100744.31;;;23.11;59.00
60417;BME280;46263;44.726;10.396;2023-05-08T08:58:32;100752.28;;;23.12;58.58
60417;BME280;46263;44.726;10.396;2023-05-08T09:01:01;100755.13;;;23.22;57.78
60417;BME280;46263;44.726;10.396;2023-05-08T09:03:30;100754.66;;;23.25;57.92
60417;BME280;46263;44.726;10.396;2023-05-08T09:05:58;100758.09;;;23.14;57.59
60417;BME280;46263;44.726;10.396;2023-05-08T09:08:25;100761.13;;;23.26;57.68
60417;BME280;46263;44.726;10.396;2023-05-08T09:10:54;100757.78;;;23.38;56.74
60417;BME280;46263;44.726;10.396;2023-05-08T09:13:20;100755.09;;;23.40;57.43
60417;BME280;46263;44.726;10.396;2023-05-08T09:15:45;100760.47;;;23.55;56.48
60417;BME280;46263;44.726;10.396;2023-05-08T09:18:11;100763.00;;;23.61;57.19
60417;BME280;46263;44.726;10.396;2023-05-08T09:20:39;100764.19;;;23.67;55.83
60417;BME280;46263;44.726;10.396;2023-05-08T09:23:05;100766.44;;;23.69;55.20
60417;BME280;46263;44.726;10.396;2023-05-08T09:25:41;100765.72;;;23.78;55.56
60417;BME280;46263;44.726;10.396;2023-05-08T09:28:24;100764.31;;;23.79;56.20
60417;BME280;46263;44.726;10.396;2023-05-08T09:30:54;100762.66;;;23.85;56.15
60417;BME280;46263;44.726;10.396;2023-05-08T09:33:22;100774.81;;;23.95;56.99
60417;BME280;46263;44.726;10.396;2023-05-08T09:35:48;100765.72;;;24.08;56.36
60417;BME280;46263;44.726;10.396;2023-05-08T09:41:13;100775.16;;;24.20;57.02
60417;BME280;46263;44.726;10.396;2023-05-08T09:43:40;100772.56;;;24.24;55.95
60417;BME280;46263;44.726;10.396;2023-05-08T09:46:22;100785.06;;;24.19;56.02
60417;BME280;46263;44.726;10.396;2023-05-08T09:48:49;100782.84;;;24.17;55.64
60417;BME280;46263;44.726;10.396;2023-05-08T09:51:15;100784.47;;;24.20;54.93
60417;BME280;46263;44.726;10.396;2023-05-08T09:53:41;100787.19;;;24.18;56.25
60417;BME280;46263;44.726;10.396;2023-05-08T09:56:07;100791.53;;;24.19;56.10
60417;BME280;46263;44.726;10.396;2023-05-08T09:58:40;100783.31;;;24.14;55.85
60417;BME280;46263;44.726;10.396;2023-05-08T10:01:07;100781.66;;;24.11;55.77
60417;BME280;46263;44.726;10.396;2023-05-08T10:03:46;100787.94;;;24.19;55.33
60417;BME280;46263;44.726;10.396;2023-05-08T10:06:12;100792.09;;;24.27;54.88
60417;BME280;46263;44.726;10.396;2023-05-08T10:08:39;100793.28;;;24.34;54.43
60417;BME280;46263;44.726;10.396;2023-05-08T10:11:20;100788.28;;;24.44;54.84
60417;BME280;46263;44.726;10.396;2023-05-08T10:13:46;100792.22;;;24.39;55.27
60417;BME280;46263;44.726;10.396;2023-05-08T10:16:16;100789.06;;;24.35;53.75
60417;BME280;46263;44.726;10.396;2023-05-08T10:18:47;100783.47;;;24.46;53.49
60417;BME280;46263;44.726;10.396;2023-05-08T10:21:14;100772.88;;;24.58;53.67
60417;BME280;46263;44.726;10.396;2023-05-08T10:23:41;100766.34;;;24.67;53.46
60417;BME280;46263;44.726;10.396;2023-05-08T10:26:15;100767.63;;;24.76;52.04
60417;BME280;46263;44.726;10.396;2023-05-08T10:28:57;100761.75;;;24.74;53.26
60417;BME280;46263;44.726;10.396;2023-05-08T10:31:32;100767.47;;;24.74;53.47
60417;BME280;46263;44.726;10.396;2023-05-08T10:34:01;100766.13;;;24.75;52.79
60417;BME280;46263;44.726;10.396;2023-05-08T10:36:27;100762.63;;;24.76;52.29
60417;BME280;46263;44.726;10.396;2023-05-08T10:38:56;100758.16;;;24.73;52.55
60417;BME280;46263;44.726;10.396;2023-05-08T10:41:22;100757.00;;;24.67;53.70
60417;BME280;46263;44.726;10.396;2023-05-08T10:43:49;100754.75;;;24.65;53.69
60417;BME280;46263;44.726;10.396;2023-05-08T10:46:29;100759.66;;;24.74;52.40
60417;BME280;46263;44.726;10.396;2023-05-08T10:48:59;100751.69;;;24.73;55.68
60417;BME280;46263;44.726;10.396;2023-05-08T10:51:36;100756.88;;;24.86;54.27
60417;BME280;46263;44.726;10.396;2023-05-08T10:54:13;100748.72;;;25.03;53.86
60417;BME280;46263;44.726;10.396;2023-05-08T10:56:42;100742.84;;;25.10;53.68
60417;BME280;46263;44.726;10.396;2023-05-08T10:59:16;100744.09;;;25.19;51.91
60417;BME280;46263;44.726;10.396;2023-05-08T11:01:46;100742.25;;;25.23;51.63
60417;BME280;46263;44.726;10.396;2023-05-08T11:04:22;100738.56;;;25.32;51.88
60417;BME280;46263;44.726;10.396;2023-05-08T11:06:48;100735.94;;;25.36;52.62
60417;BME280;46263;44.726;10.396;2023-05-08T11:09:21;100741.56;;;25.34;51.59
60417;BME280;46263;44.726;10.396;2023-05-08T11:12:07;100735.91;;;25.25;51.33
60417;BME280;46263;44.726;10.396;2023-05-08T11:14:41;100732.31;;;25.24;51.63
60417;BME280;46263;44.726;10.396;2023-05-08T11:17:08;100738.28;;;25.28;53.28
60417;BME280;46263;44.726;10.396;2023-05-08T11:19:34;100735.16;;;25.24;52.26
60417;BME280;46263;44.726;10.396;2023-05-08T11:24:35;100725.88;;;25.35;52.70
60417;BME280;46263;44.726;10.396;2023-05-08T11:27:01;100720.53;;;25.41;52.39
60417;BME280;46263;44.726;10.396;2023-05-08T11:29:26;100720.50;;;25.30;53.55
60417;BME280;46263;44.726;10.396;2023-05-08T11:31:52;100722.53;;;25.39;52.97
60417;BME280;46263;44.726;10.396;2023-05-08T11:37:19;100714.81;;;25.41;52.51
60417;BME280;46263;44.726;10.396;2023-05-08T11:39:46;100723.25;;;25.39;51.57
60417;BME280;46263;44.726;10.396;2023-05-08T11:45:12;100708.09;;;25.60;52.38
60417;BME280;46263;44.726;10.396;2023-05-08T11:47:40;100703.25;;;25.62;52.93
60417;BME280;46263;44.726;10.396;2023-05-08T11:50:10;100703.16;;;25.72;53.14
60417;BME280;46263;44.726;10.396;2023-05-08T11:52:37;100700.66;;;25.66;51.90
60417;BME280;46263;44.726;10.396;2023-05-08T11:55:05;100699.03;;;25.63;52.27
60417;BME280;46263;44.726;10.396;2023-05-08T11:57:31;100706.00;;;25.60;52.66
60417;BME280;46263;44.726;10.396;2023-05-08T12:00:02;100706.47;;;25.57;51.76
60417;BME280;46263;44.726;10.396;2023-05-08T12:02:54;100702.63;;;25.52;51.71
60417;BME280;46263;44.726;10.396;2023-05-08T12:05:25;100703.88;;;25.49;54.33
60417;BME280;46263;44.726;10.396;2023-05-08T12:07:51;100697.00;;;25.54;52.89
60417;BME280;46263;44.726;10.396;2023-05-08T12:10:16;100694.78;;;25.64;52.87
60417;BME280;46263;44.726;10.396;2023-05-08T12:12:43;100693.16;;;25.73;51.68
60417;BME280;46263;44.726;10.396;2023-05-08T12:15:13;100702.16;;;25.67;52.43
60417;BME280;46263;44.726;10.396;2023-05-08T12:17:40;100702.38;;;25.71;52.50
60417;BME280;46263;44.726;10.396;2023-05-08T12:20:24;100703.66;;;25.68;51.44
60417;BME280;46263;44.726;10.396;2023-05-08T12:22:51;100703.25;;;25.62;52.91
60417;BME280;46263;44.726;10.396;2023-05-08T12:25:17;100702.50;;;25.62;52.75
60417;BME280;46263;44.726;10.396;2023-05-08T12:27:43;100697.66;;;25.64;52.06
60417;BME280;46263;44.726;10.396;2023-05-08T12:30:11;100688.06;;;25.71;52.39
60417;BME280;46263;44.726;10.396;2023-05-08T12:32:39;100693.16;;;25.61;52.72
60417;BME280;46263;44.726;10.396;2023-05-08T12:35:10;100698.66;;;25.57;51.70
60417;BME280;46263;44.726;10.396;2023-05-08T12:37:35;100701.38;;;25.67;51.73
60417;BME280;46263;44.726;10.396;2023-05-08T12:40:02;100696.44;;;25.67;52.46
60417;BME280;46263;44.726;10.396;2023-05-08T12:42:44;100699.53;;;25.71;53.02
60417;BME280;46263;44.726;10.396;2023-05-08T12:45:20;100695.06;;;25.68;53.12
60417;BME280;46263;44.726;10.396;2023-05-08T12:47:48;100692.47;;;25.83;54.06
60417;BME280;46263;44.726;10.396;2023-05-08T12:50:15;100695.09;;;25.91;53.24
60417;BME280;46263;44.726;10.396;2023-05-08T12:52:41;100689.00;;;25.96;53.25
60417;BME280;46263;44.726;10.396;2023-05-08T12:55:23;100695.47;;;25.97;52.51
60417;BME280;46263;44.726;10.396;2023-05-08T12:57:57;100694.22;;;25.88;51.45
60417;BME280;46263;44.726;10.396;2023-05-08T13:00:22;100692.47;;;25.95;51.75
60417;BME280;46263;44.726;10.396;2023-05-08T13:02:55;100689.22;;;25.89;51.26
60417;BME280;46263;44.726;10.396;2023-05-08T13:05:22;100690.97;;;25.82;51.85
60417;BME280;46263;44.726;10.396;2023-05-08T13:07:50;100694.97;;;25.78;51.47
60417;BME280;46263;44.726;10.396;2023-05-08T13:10:17;100692.22;;;25.80;51.63
60417;BME280;46263;44.726;10.396;2023-05-08T13:12:46;100688.34;;;25.98;52.35
60417;BME280;46263;44.726;10.396;2023-05-08T13:15:12;100678.00;;;25.93;50.93
60417;BME280;46263;44.726;10.396;2023-05-08T13:17:37;100679.00;;;25.86;51.40
60417;BME280;46263;44.726;10.396;2023-05-08T13:20:03;100672.41;;;25.83;51.39
60417;BME280;46263;44.726;10.396;2023-05-08T13:22:29;100669.81;;;25.76;51.04
60417;BME280;46263;44.726;10.396;2023-05-08T13:24:55;100669.50;;;25.72;51.37
60417;BME280;46263;44.726;10.396;2023-05-08T13:27:20;100668.03;;;25.71;50.84
60417;BME280;46263;44.726;10.396;2023-05-08T13:29:46;100661.56;;;25.71;50.55
60417;BME280;46263;44.726;10.396;2023-05-08T13:32:11;100661.22;;;25.76;51.70
60417;BME280;46263;44.726;10.396;2023-05-08T13:34:37;100656.09;;;25.86;50.27